sensor_id;sensor_type;location;lat;lon;timestamp;P1;durP1;ratioP1;P2;durP2;ratioP2
60030;SDS011;45901;47.600;9.890;2022-12-29T06:25:37;2.90;;;1.23;;
60030;SDS011;45901;47.600;9.890;2022-12-29T06:28:04;3.90;;;2.10;;
60030;SDS011;45901;47.600;9.890;2022-12-29T06:30:31;4.00;;;2.20;;
60030;SDS011;45901;47.600;9.890;2022-12-29T06:32:59;5.07;;;2.47;;
60030;SDS011;45901;47.600;9.890;2022-12-29T06:35:26;3.93;;;2.17;;
60030;SDS011;45901;47.600;9.890;2022-12-29T06:37:53;3.80;;;2.20;;
60030;SDS011;45901;47.600;9.890;2022-12-29T06:40:22;2.97;;;1.30;;
60030;SDS011;45901;47.600;9.890;2022-12-29T06:42:49;6.10;;;1.57;;
60030;SDS011;45901;47.600;9.890;2022-12-29T06:45:16;3.33;;;1.57;;
60030;SDS011;45901;47.600;9.890;2022-12-29T06:47:43;2.23;;;1.27;;
60030;SDS011;45901;47.600;9.890;2022-12-29T06:50:10;3.30;;;1.40;;
60030;SDS011;45901;47.600;9.890;2022-12-29T06:52:37;1.80;;;1.10;;
60030;SDS011;45901;47.600;9.890;2022-12-29T06:55:05;2.53;;;0.93;;
60030;SDS011;45901;47.600;9.890;2022-12-29T06:57:34;2.30;;;0.93;;
60030;SDS011;45901;47.600;9.890;2022-12-29T07:00:02;1.30;;;0.70;;
60030;SDS011;45901;47.600;9.890;2022-12-29T07:02:29;1.33;;;0.83;;
60030;SDS011;45901;47.600;9.890;2022-12-29T07:04:57;1.40;;;1.30;;
60030;SDS011;45901;47.600;9.890;2022-12-29T07:07:24;2.10;;;1.13;;
60030;SDS011;45901;47.600;9.890;2022-12-29T07:09:51;2.50;;;1.33;;
60030;SDS011;45901;47.600;9.890;2022-12-29T07:12:18;4.23;;;2.40;;
60030;SDS011;45901;47.600;9.890;2022-12-29T07:14:46;6.43;;;2.97;;
60030;SDS011;45901;47.600;9.890;2022-12-29T07:17:14;6.07;;;3.20;;
60030;SDS011;45901;47.600;9.890;2022-12-29T07:19:41;4.80;;;2.60;;
60030;SDS011;45901;47.600;9.890;2022-12-29T07:22:09;5.10;;;2.30;;
60030;SDS011;45901;47.600;9.890;2022-12-29T07:24:36;3.57;;;1.40;;
60030;SDS011;45901;47.600;9.890;2022-12-29T07:27:04;1.97;;;1.10;;
60030;SDS011;45901;47.600;9.890;2022-12-29T07:29:31;1.63;;;0.83;;
60030;SDS011;45901;47.600;9.890;2022-12-29T07:31:59;1.43;;;0.80;;
60030;SDS011;45901;47.600;9.890;2022-12-29T07:34:27;0.90;;;0.67;;
60030;SDS011;45901;47.600;9.890;2022-12-29T07:36:54;2.93;;;0.90;;
60030;SDS011;45901;47.600;9.890;2022-12-29T07:39:22;3.27;;;1.50;;
60030;SDS011;45901;47.600;9.890;2022-12-29T07:41:49;3.53;;;1.40;;
60030;SDS011;45901;47.600;9.890;2022-12-29T07:44:16;3.20;;;1.10;;
60030;SDS011;45901;47.600;9.890;2022-12-29T07:46:43;2.10;;;1.00;;
60030;SDS011;45901;47.600;9.890;2022-12-29T07:49:12;1.47;;;0.67;;
60030;SDS011;45901;47.600;9.890;2022-12-29T07:51:39;1.93;;;0.90;;
60030;SDS011;45901;47.600;9.890;2022-12-29T07:54:06;2.10;;;1.10;;
60030;SDS011;45901;47.600;9.890;2022-12-29T07:56:35;1.57;;;1.10;;
60030;SDS011;45901;47.600;9.890;2022-12-29T07:59:02;1.27;;;0.80;;
60030;SDS011;45901;47.600;9.890;2022-12-29T08:01:29;2.70;;;0.80;;
60030;SDS011;45901;47.600;9.890;2022-12-29T08:03:56;3.10;;;1.43;;
60030;SDS011;45901;47.600;9.890;2022-12-29T08:06:25;2.73;;;1.13;;
60030;SDS011;45901;47.600;9.890;2022-12-29T08:08:52;2.00;;;0.73;;
60030;SDS011;45901;47.600;9.890;2022-12-29T08:11:21;1.30;;;0.57;;
60030;SDS011;45901;47.600;9.890;2022-12-29T08:13:48;2.67;;;0.80;;
60030;SDS011;45901;47.600;9.890;2022-12-29T08:16:15;0.70;;;0.57;;
60030;SDS011;45901;47.600;9.890;2022-12-29T08:18:43;2.23;;;0.70;;
60030;SDS011;45901;47.600;9.890;2022-12-29T08:21:10;1.00;;;0.50;;
60030;SDS011;45901;47.600;9.890;2022-12-29T08:23:39;1.90;;;0.80;;
60030;SDS011;45901;47.600;9.890;2022-12-29T08:26:06;1.03;;;0.50;;
60030;SDS011;45901;47.600;9.890;2022-12-29T08:28:33;2.37;;;0.63;;
60030;SDS011;45901;47.600;9.890;2022-12-29T08:31:01;1.30;;;0.70;;
60030;SDS011;45901;47.600;9.890;2022-12-29T08:33:28;4.80;;;0.70;;
60030;SDS011;45901;47.600;9.890;2022-12-29T08:35:58;0.90;;;0.60;;
60030;SDS011;45901;47.600;9.890;2022-12-29T08:38:26;3.27;;;0.93;;
60030;SDS011;45901;47.600;9.890;2022-12-29T08:40:56;1.80;;;0.77;;
60030;SDS011;45901;47.600;9.890;2022-12-29T08:43:26;2.87;;;0.80;;
60030;SDS011;45901;47.600;9.890;2022-12-29T08:45:54;2.87;;;0.87;;
60030;SDS011;45901;47.600;9.890;2022-12-29T08:48:21;1.57;;;0.60;;
60030;SDS011;45901;47.600;9.890;2022-12-29T08:50:48;1.80;;;0.80;;
60030;SDS011;45901;47.600;9.890;2022-12-29T08:53:16;2.87;;;0.70;;
60030;SDS011;45901;47.600;9.890;2022-12-29T08:55:44;1.53;;;0.83;;
60030;SDS011;45901;47.600;9.890;2022-12-29T08:58:13;2.67;;;0.70;;
60030;SDS011;45901;47.600;9.890;2022-12-29T09:00:42;3.77;;;1.10;;
60030;SDS011;45901;47.600;9.890;2022-12-29T09:03:09;1.43;;;0.80;;
60030;SDS011;45901;47.600;9.890;2022-12-29T09:05:36;2.13;;;0.90;;
60030;SDS011;45901;47.600;9.890;2022-12-29T09:08:03;2.10;;;0.70;;
60030;SDS011;45901;47.600;9.890;2022-12-29T09:10:31;1.40;;;0.73;;
60030;SDS011;45901;47.600;9.890;2022-12-29T09:12:58;1.57;;;0.80;;
60030;SDS011;45901;47.600;9.890;2022-12-29T09:15:27;1.30;;;0.90;;
60030;SDS011;45901;47.600;9.890;2022-12-29T09:17:54;1.07;;;0.60;;
60030;SDS011;45901;47.600;9.890;2022-12-29T09:20:21;2.47;;;0.80;;
60030;SDS011;45901;47.600;9.890;2022-12-29T09:22:48;2.43;;;1.00;;
60030;SDS011;45901;47.600;9.890;2022-12-29T09:25:15;3.03;;;0.97;;
60030;SDS011;45901;47.600;9.890;2022-12-29T09:27:43;1.37;;;0.80;;
60030;SDS011;45901;47.600;9.890;2022-12-29T09:30:10;1.67;;;0.80;;
60030;SDS011;45901;47.600;9.890;2022-12-29T09:32:41;1.20;;;0.80;;
60030;SDS011;45901;47.600;9.890;2022-12-29T09:35:08;1.43;;;0.87;;
60030;SDS011;45901;47.600;9.890;2022-12-29T09:37:35;2.47;;;0.80;;
60030;SDS011;45901;47.600;9.890;2022-12-29T09:40:03;2.27;;;0.83;;
60030;SDS011;45901;47.600;9.890;2022-12-29T09:42:32;1.20;;;0.70;;
60030;SDS011;45901;47.600;9.890;2022-12-29T09:45:10;1.90;;;0.70;;
60030;SDS011;45901;47.600;9.890;2022-12-29T09:47:43;1.83;;;0.70;;
60030;SDS011;45901;47.600;9.890;2022-12-29T09:50:14;2.50;;;0.90;;
60030;SDS011;45901;47.600;9.890;2022-12-29T09:52:52;1.30;;;0.70;;
60030;SDS011;45901;47.600;9.890;2022-12-29T09:55:26;1.73;;;0.87;;
60030;SDS011;45901;47.600;9.890;2022-12-29T09:58:03;1.23;;;0.60;;
60030;SDS011;45901;47.600;9.890;2022-12-29T10:00:38;1.30;;;0.80;;
60030;SDS011;45901;47.600;9.890;2022-12-29T10:03:16;4.17;;;1.77;;
60030;SDS011;45901;47.600;9.890;2022-12-29T10:05:47;8.90;;;4.13;;
60030;SDS011;45901;47.600;9.890;2022-12-29T10:08:23;2.77;;;1.37;;
60030;SDS011;45901;47.600;9.890;2022-12-29T10:11:02;2.30;;;1.00;;
60030;SDS011;45901;47.600;9.890;2022-12-29T10:13:43;1.53;;;1.00;;
60030;SDS011;45901;47.600;9.890;2022-12-29T10:16:35;3.77;;;1.80;;
60030;SDS011;45901;47.600;9.890;2022-12-29T10:19:24;2.50;;;1.30;;
60030;SDS011;45901;47.600;9.890;2022-12-29T10:22:21;2.20;;;0.87;;
60030;SDS011;45901;47.600;9.890;2022-12-29T10:25:06;1.57;;;0.50;;
60030;SDS011;45901;47.600;9.890;2022-12-29T10:27:41;2.27;;;0.60;;
60030;SDS011;45901;47.600;9.890;2022-12-29T10:30:11;1.63;;;0.87;;
60030;SDS011;45901;47.600;9.890;2022-12-29T10:32:40;1.40;;;0.87;;
60030;SDS011;45901;47.600;9.890;2022-12-29T10:35:16;1.13;;;0.70;;
60030;SDS011;45901;47.600;9.890;2022-12-29T10:37:48;2.47;;;0.90;;
60030;SDS011;45901;47.600;9.890;2022-12-29T10:40:23;4.40;;;1.97;;
60030;SDS011;45901;47.600;9.890;2022-12-29T10:42:54;2.37;;;1.20;;
60030;SDS011;45901;47.600;9.890;2022-12-29T10:45:24;1.53;;;0.90;;
60030;SDS011;45901;47.600;9.890;2022-12-29T10:47:56;4.03;;;1.47;;
60030;SDS011;45901;47.600;9.890;2022-12-29T10:50:29;2.03;;;1.33;;
60030;SDS011;45901;47.600;9.890;2022-12-29T10:52:57;1.70;;;1.10;;
60030;SDS011;45901;47.600;9.890;2022-12-29T10:55:28;1.83;;;1.27;;
60030;SDS011;45901;47.600;9.890;2022-12-29T10:58:00;2.23;;;0.97;;
60030;SDS011;45901;47.600;9.890;2022-12-29T11:00:33;2.60;;;1.00;;
60030;SDS011;45901;47.600;9.890;2022-12-29T11:03:10;2.40;;;1.20;;
60030;SDS011;45901;47.600;9.890;2022-12-29T11:06:12;1.70;;;0.90;;
60030;SDS011;45901;47.600;9.890;2022-12-29T11:08:46;2.27;;;1.27;;
60030;SDS011;45901;47.600;9.890;2022-12-29T11:11:22;2.40;;;1.20;;
60030;SDS011;45901;47.600;9.890;2022-12-29T11:13:55;2.50;;;1.07;;
60030;SDS011;45901;47.600;9.890;2022-12-29T11:16:29;7.33;;;1.30;;
60030;SDS011;45901;47.600;9.890;2022-12-29T11:18:59;2.70;;;1.20;;
60030;SDS011;45901;47.600;9.890;2022-12-29T11:21:31;6.03;;;1.20;;
60030;SDS011;45901;47.600;9.890;2022-12-29T11:24:05;1.87;;;1.20;;
60030;SDS011;45901;47.600;9.890;2022-12-29T11:26:47;2.17;;;1.10;;
60030;SDS011;45901;47.600;9.890;2022-12-29T11:29:21;3.70;;;1.27;;
60030;SDS011;45901;47.600;9.890;2022-12-29T11:31:51;1.73;;;0.90;;
60030;SDS011;45901;47.600;9.890;2022-12-29T11:34:21;3.03;;;1.43;;
60030;SDS011;45901;47.600;9.890;2022-12-29T11:36:53;2.13;;;1.03;;
60030;SDS011;45901;47.600;9.890;2022-12-29T11:39:28;5.10;;;1.00;;
60030;SDS011;45901;47.600;9.890;2022-12-29T11:42:00;2.13;;;1.00;;
60030;SDS011;45901;47.600;9.890;2022-12-29T11:44:30;2.47;;;1.30;;
60030;SDS011;45901;47.600;9.890;2022-12-29T11:47:03;1.83;;;1.00;;
60030;SDS011;45901;47.600;9.890;2022-12-29T11:49:34;3.43;;;0.97;;
60030;SDS011;45901;47.600;9.890;2022-12-29T11:52:03;3.67;;;1.70;;
60030;SDS011;45901;47.600;9.890;2022-12-29T11:54:31;4.10;;;1.23;;
60030;SDS011;45901;47.600;9.890;2022-12-29T11:57:08;1.47;;;0.90;;
60030;SDS011;45901;47.600;9.890;2022-12-29T11:59:42;3.13;;;1.50;;
60030;SDS011;45901;47.600;9.890;2022-12-29T12:02:22;8.30;;;1.20;;
60030;SDS011;45901;47.600;9.890;2022-12-29T12:05:03;8.67;;;3.43;;
60030;SDS011;45901;47.600;9.890;2022-12-29T12:07:41;5.77;;;1.80;;
60030;SDS011;45901;47.600;9.890;2022-12-29T12:10:19;2.27;;;1.30;;
60030;SDS011;45901;47.600;9.890;2022-12-29T12:12:56;3.07;;;1.50;;
60030;SDS011;45901;47.600;9.890;2022-12-29T12:15:35;2.53;;;1.40;;
60030;SDS011;45901;47.600;9.890;2022-12-29T12:18:08;2.27;;;1.00;;
60030;SDS011;45901;47.600;9.890;2022-12-29T12:20:44;2.93;;;1.00;;
60030;SDS011;45901;47.600;9.890;2022-12-29T12:38:55;3.17;;;2.20;;
60030;SDS011;45901;47.600;9.890;2022-12-29T12:41:33;3.50;;;1.97;;
60030;SDS011;45901;47.600;9.890;2022-12-29T12:44:16;2.57;;;1.43;;
60030;SDS011;45901;47.600;9.890;2022-12-29T12:50:01;2.63;;;1.30;;
60030;SDS011;45901;47.600;9.890;2022-12-29T12:53:03;4.03;;;1.70;;
60030;SDS011;45901;47.600;9.890;2022-12-29T12:55:52;3.87;;;1.57;;
60030;SDS011;45901;47.600;9.890;2022-12-29T12:58:43;4.17;;;1.40;;
60030;SDS011;45901;47.600;9.890;2022-12-29T13:01:24;2.87;;;1.20;;
60030;SDS011;45901;47.600;9.890;2022-12-29T13:04:13;1.77;;;0.80;;
60030;SDS011;45901;47.600;9.890;2022-12-29T13:07:06;5.47;;;2.00;;
60030;SDS011;45901;47.600;9.890;2022-12-29T13:09:48;3.50;;;1.20;;
60030;SDS011;45901;47.600;9.890;2022-12-29T13:12:43;2.23;;;1.03;;
60030;SDS011;45901;47.600;9.890;2022-12-29T13:15:21;2.80;;;1.00;;
60030;SDS011;45901;47.600;9.890;2022-12-29T13:18:10;1.63;;;0.70;;
60030;SDS011;45901;47.600;9.890;2022-12-29T13:20:49;2.67;;;1.10;;
60030;SDS011;45901;47.600;9.890;2022-12-29T13:23:23;2.47;;;1.20;;
60030;SDS011;45901;47.600;9.890;2022-12-29T13:25:59;2.97;;;1.37;;
60030;SDS011;45901;47.600;9.890;2022-12-29T13:28:38;5.43;;;1.30;;
60030;SDS011;45901;47.600;9.890;2022-12-29T13:31:20;2.13;;;1.10;;
60030;SDS011;45901;47.600;9.890;2022-12-29T13:34:00;1.97;;;1.00;;
60030;SDS011;45901;47.600;9.890;2022-12-29T13:36:42;2.93;;;1.50;;
60030;SDS011;45901;47.600;9.890;2022-12-29T13:39:13;4.13;;;1.77;;
60030;SDS011;45901;47.600;9.890;2022-12-29T13:41:46;7.00;;;2.63;;
60030;SDS011;45901;47.600;9.890;2022-12-29T13:44:19;3.37;;;1.57;;
60030;SDS011;45901;47.600;9.890;2022-12-29T13:46:51;7.23;;;3.37;;
60030;SDS011;45901;47.600;9.890;2022-12-29T13:49:22;4.50;;;2.30;;
60030;SDS011;45901;47.600;9.890;2022-12-29T13:51:50;3.60;;;1.10;;
60030;SDS011;45901;47.600;9.890;2022-12-29T13:54:29;3.00;;;0.93;;
60030;SDS011;45901;47.600;9.890;2022-12-29T13:57:07;2.93;;;0.90;;
60030;SDS011;45901;47.600;9.890;2022-12-29T13:59:42;1.17;;;0.80;;
60030;SDS011;45901;47.600;9.890;2022-12-29T14:02:19;3.10;;;1.27;;
60030;SDS011;45901;47.600;9.890;2022-12-29T14:07:57;4.33;;;1.50;;
60030;SDS011;45901;47.600;9.890;2022-12-29T14:10:27;4.87;;;2.53;;
60030;SDS011;45901;47.600;9.890;2022-12-29T14:13:02;1.20;;;0.80;;
60030;SDS011;45901;47.600;9.890;2022-12-29T14:15:33;2.80;;;1.20;;
60030;SDS011;45901;47.600;9.890;2022-12-29T14:18:11;2.13;;;0.90;;
60030;SDS011;45901;47.600;9.890;2022-12-29T14:20:46;3.63;;;1.13;;
60030;SDS011;45901;47.600;9.890;2022-12-29T14:23:28;1.93;;;1.10;;
60030;SDS011;45901;47.600;9.890;2022-12-29T14:26:13;2.93;;;0.90;;
60030;SDS011;45901;47.600;9.890;2022-12-29T14:28:44;1.70;;;0.80;;
60030;SDS011;45901;47.600;9.890;2022-12-29T14:34:15;2.23;;;1.00;;
60030;SDS011;45901;47.600;9.890;2022-12-29T14:37:00;2.63;;;1.47;;
60030;SDS011;45901;47.600;9.890;2022-12-29T14:39:30;3.47;;;2.20;;
60030;SDS011;45901;47.600;9.890;2022-12-29T14:42:03;5.47;;;1.50;;
60030;SDS011;45901;47.600;9.890;2022-12-29T14:44:33;2.50;;;1.70;;
60030;SDS011;45901;47.600;9.890;2022-12-29T14:47:14;5.40;;;1.97;;
60030;SDS011;45901;47.600;9.890;2022-12-29T14:49:46;4.27;;;2.20;;
60030;SDS011;45901;47.600;9.890;2022-12-29T14:52:15;8.33;;;4.43;;
60030;SDS011;45901;47.600;9.890;2022-12-29T14:54:56;7.00;;;4.03;;
60030;SDS011;45901;47.600;9.890;2022-12-29T14:57:37;10.03;;;5.77;;
60030;SDS011;45901;47.600;9.890;2022-12-29T15:00:43;4.73;;;1.97;;
60030;SDS011;45901;47.600;9.890;2022-12-29T15:11:54;3.53;;;1.67;;
60030;SDS011;45901;47.600;9.890;2022-12-29T15:15:49;5.67;;;2.80;;
60030;SDS011;45901;47.600;9.890;2022-12-29T15:18:24;3.90;;;2.47;;
60030;SDS011;45901;47.600;9.890;2022-12-29T15:26:44;5.97;;;2.70;;
60030;SDS011;45901;47.600;9.890;2022-12-29T15:29:31;6.90;;;3.43;;
60030;SDS011;45901;47.600;9.890;2022-12-29T15:32:15;5.93;;;3.00;;
60030;SDS011;45901;47.600;9.890;2022-12-29T15:34:47;7.67;;;3.53;;
60030;SDS011;45901;47.600;9.890;2022-12-29T15:37:19;6.60;;;3.70;;
60030;SDS011;45901;47.600;9.890;2022-12-29T15:39:49;6.90;;;3.17;;
60030;SDS011;45901;47.600;9.890;2022-12-29T15:42:22;7.23;;;4.00;;
60030;SDS011;45901;47.600;9.890;2022-12-29T15:48:52;7.73;;;3.67;;
60030;SDS011;45901;47.600;9.890;2022-12-29T15:51:23;5.07;;;2.13;;
60030;SDS011;45901;47.600;9.890;2022-12-29T15:54:01;8.07;;;4.30;;
60030;SDS011;45901;47.600;9.890;2022-12-29T15:56:29;7.43;;;4.63;;
60030;SDS011;45901;47.600;9.890;2022-12-29T15:58:58;8.30;;;5.57;;
60030;SDS011;45901;47.600;9.890;2022-12-29T16:01:27;7.93;;;4.10;;
60030;SDS011;45901;47.600;9.890;2022-12-29T16:03:59;7.73;;;4.73;;
60030;SDS011;45901;47.600;9.890;2022-12-29T16:09:47;8.40;;;5.50;;
60030;SDS011;45901;47.600;9.890;2022-12-29T16:12:20;14.13;;;5.93;;
60030;SDS011;45901;47.600;9.890;2022-12-29T16:17:42;7.10;;;4.00;;
60030;SDS011;45901;47.600;9.890;2022-12-29T16:20:34;9.40;;;4.43;;
60030;SDS011;45901;47.600;9.890;2022-12-29T16:23:24;9.93;;;4.77;;
60030;SDS011;45901;47.600;9.890;2022-12-29T16:26:44;15.47;;;8.30;;
60030;SDS011;45901;47.600;9.890;2022-12-29T16:29:14;7.47;;;3.67;;
60030;SDS011;45901;47.600;9.890;2022-12-29T16:31:49;9.77;;;4.30;;
60030;SDS011;45901;47.600;9.890;2022-12-29T16:34:25;11.77;;;4.53;;
60030;SDS011;45901;47.600;9.890;2022-12-29T16:36:59;16.53;;;6.57;;
60030;SDS011;45901;47.600;9.890;2022-12-29T16:39:29;10.63;;;5.07;;
60030;SDS011;45901;47.600;9.890;2022-12-29T16:41:59;13.53;;;5.53;;
60030;SDS011;45901;47.600;9.890;2022-12-29T16:44:28;11.17;;;4.90;;
60030;SDS011;45901;47.600;9.890;2022-12-29T16:47:05;9.90;;;5.03;;
60030;SDS011;45901;47.600;9.890;2022-12-29T16:49:51;13.17;;;6.77;;
60030;SDS011;45901;47.600;9.890;2022-12-29T16:52:22;7.47;;;4.23;;
60030;SDS011;45901;47.600;9.890;2022-12-29T16:55:00;5.73;;;3.80;;
60030;SDS011;45901;47.600;9.890;2022-12-29T16:57:28;6.87;;;3.97;;
60030;SDS011;45901;47.600;9.890;2022-12-29T17:00:16;8.50;;;3.80;;
60030;SDS011;45901;47.600;9.890;2022-12-29T17:02:58;7.40;;;4.27;;
60030;SDS011;45901;47.600;9.890;2022-12-29T17:05:29;8.43;;;5.20;;
60030;SDS011;45901;47.600;9.890;2022-12-29T17:07:58;9.83;;;5.73;;
60030;SDS011;45901;47.600;9.890;2022-12-29T17:10:27;10.83;;;5.63;;
60030;SDS011;45901;47.600;9.890;2022-12-29T17:13:15;9.03;;;5.27;;
60030;SDS011;45901;47.600;9.890;2022-12-29T17:15:43;6.87;;;3.20;;
60030;SDS011;45901;47.600;9.890;2022-12-29T17:18:10;7.00;;;3.80;;
60030;SDS011;45901;47.600;9.890;2022-12-29T17:20:38;5.37;;;2.77;;
60030;SDS011;45901;47.600;9.890;2022-12-29T17:23:10;4.13;;;2.00;;
60030;SDS011;45901;47.600;9.890;2022-12-29T17:25:42;3.07;;;1.30;;
60030;SDS011;45901;47.600;9.890;2022-12-29T17:28:19;2.13;;;1.00;;
60030;SDS011;45901;47.600;9.890;2022-12-29T17:30:49;3.87;;;1.80;;
60030;SDS011;45901;47.600;9.890;2022-12-29T17:33:18;2.30;;;1.00;;
60030;SDS011;45901;47.600;9.890;2022-12-29T17:35:52;4.07;;;1.20;;
60030;SDS011;45901;47.600;9.890;2022-12-29T17:38:28;3.10;;;1.57;;
60030;SDS011;45901;47.600;9.890;2022-12-29T17:40:57;2.43;;;1.40;;
60030;SDS011;45901;47.600;9.890;2022-12-29T17:43:25;3.90;;;1.97;;
60030;SDS011;45901;47.600;9.890;2022-12-29T17:45:52;9.20;;;4.03;;
60030;SDS011;45901;47.600;9.890;2022-12-29T17:48:21;5.73;;;2.47;;
60030;SDS011;45901;47.600;9.890;2022-12-29T17:50:50;8.13;;;2.80;;
60030;SDS011;45901;47.600;9.890;2022-12-29T17:53:20;5.20;;;2.90;;
60030;SDS011;45901;47.600;9.890;2022-12-29T17:56:44;8.27;;;3.37;;
60030;SDS011;45901;47.600;9.890;2022-12-29T17:59:15;5.93;;;2.83;;
60030;SDS011;45901;47.600;9.890;2022-12-29T18:01:43;6.20;;;3.30;;
60030;SDS011;45901;47.600;9.890;2022-12-29T18:04:13;13.13;;;6.43;;
60030;SDS011;45901;47.600;9.890;2022-12-29T18:06:45;12.50;;;6.37;;
60030;SDS011;45901;47.600;9.890;2022-12-29T18:09:13;10.07;;;5.23;;
60030;SDS011;45901;47.600;9.890;2022-12-29T18:11:48;13.27;;;7.40;;
60030;SDS011;45901;47.600;9.890;2022-12-29T18:14:16;6.87;;;3.30;;
60030;SDS011;45901;47.600;9.890;2022-12-29T18:16:46;5.40;;;2.70;;
60030;SDS011;45901;47.600;9.890;2022-12-29T18:19:14;3.53;;;1.97;;
60030;SDS011;45901;47.600;9.890;2022-12-29T18:31:08;2.67;;;1.33;;
60030;SDS011;45901;47.600;9.890;2022-12-29T18:33:44;3.57;;;1.70;;
60030;SDS011;45901;47.600;9.890;2022-12-29T18:36:13;2.73;;;1.27;;
60030;SDS011;45901;47.600;9.890;2022-12-29T18:38:40;2.03;;;0.93;;
60030;SDS011;45901;47.600;9.890;2022-12-29T18:41:13;2.33;;;0.90;;
60030;SDS011;45901;47.600;9.890;2022-12-29T18:43:45;3.87;;;0.93;;
60030;SDS011;45901;47.600;9.890;2022-12-29T18:46:12;2.77;;;0.80;;
60030;SDS011;45901;47.600;9.890;2022-12-29T18:48:42;4.50;;;1.30;;
60030;SDS011;45901;47.600;9.890;2022-12-29T18:51:43;2.87;;;1.03;;
60030;SDS011;45901;47.600;9.890;2022-12-29T18:54:31;2.57;;;1.47;;
60030;SDS011;45901;47.600;9.890;2022-12-29T18:57:08;2.03;;;1.20;;
60030;SDS011;45901;47.600;9.890;2022-12-29T18:59:37;2.03;;;1.30;;
60030;SDS011;45901;47.600;9.890;2022-12-29T19:02:14;2.40;;;1.17;;
60030;SDS011;45901;47.600;9.890;2022-12-29T19:04:47;6.87;;;2.37;;
60030;SDS011;45901;47.600;9.890;2022-12-29T19:07:16;3.70;;;1.30;;
60030;SDS011;45901;47.600;9.890;2022-12-29T19:09:50;2.27;;;1.20;;
60030;SDS011;45901;47.600;9.890;2022-12-29T19:12:34;1.67;;;1.20;;
60030;SDS011;45901;47.600;9.890;2022-12-29T19:15:34;4.13;;;1.57;;
60030;SDS011;45901;47.600;9.890;2022-12-29T19:18:42;4.47;;;1.50;;
60030;SDS011;45901;47.600;9.890;2022-12-29T19:21:14;2.73;;;1.33;;
60030;SDS011;45901;47.600;9.890;2022-12-29T19:27:11;1.20;;;0.80;;
60030;SDS011;45901;47.600;9.890;2022-12-29T19:30:10;2.10;;;1.00;;
60030;SDS011;45901;47.600;9.890;2022-12-29T19:32:40;2.73;;;1.17;;
60030;SDS011;45901;47.600;9.890;2022-12-29T19:35:08;2.00;;;0.90;;
60030;SDS011;45901;47.600;9.890;2022-12-29T19:37:37;2.10;;;1.10;;
60030;SDS011;45901;47.600;9.890;2022-12-29T19:43:01;2.53;;;1.50;;
60030;SDS011;45901;47.600;9.890;2022-12-29T19:45:31;3.50;;;1.80;;
60030;SDS011;45901;47.600;9.890;2022-12-29T19:48:05;5.17;;;2.10;;
60030;SDS011;45901;47.600;9.890;2022-12-29T19:50:33;4.00;;;1.70;;
60030;SDS011;45901;47.600;9.890;2022-12-29T19:53:07;2.80;;;1.50;;
60030;SDS011;45901;47.600;9.890;2022-12-29T19:55:34;3.53;;;2.13;;
60030;SDS011;45901;47.600;9.890;2022-12-29T19:58:04;5.53;;;3.13;;
60030;SDS011;45901;47.600;9.890;2022-12-29T20:00:47;11.40;;;5.90;;
60030;SDS011;45901;47.600;9.890;2022-12-29T20:06:35;9.33;;;4.80;;
60030;SDS011;45901;47.600;9.890;2022-12-29T20:09:05;9.37;;;4.00;;
60030;SDS011;45901;47.600;9.890;2022-12-29T20:11:38;6.23;;;3.53;;
60030;SDS011;45901;47.600;9.890;2022-12-29T20:14:05;3.40;;;1.73;;
60030;SDS011;45901;47.600;9.890;2022-12-29T20:16:38;2.57;;;1.40;;
60030;SDS011;45901;47.600;9.890;2022-12-29T20:19:49;4.23;;;1.87;;
60030;SDS011;45901;47.600;9.890;2022-12-29T20:22:34;4.40;;;1.87;;
60030;SDS011;45901;47.600;9.890;2022-12-29T20:25:13;3.83;;;1.50;;
60030;SDS011;45901;47.600;9.890;2022-12-29T20:27:43;5.03;;;1.87;;
60030;SDS011;45901;47.600;9.890;2022-12-29T20:30:52;4.43;;;1.30;;
60030;SDS011;45901;47.600;9.890;2022-12-29T20:33:26;4.07;;;1.50;;
60030;SDS011;45901;47.600;9.890;2022-12-29T20:36:06;3.73;;;1.50;;
60030;SDS011;45901;47.600;9.890;2022-12-29T20:38:40;3.73;;;1.63;;
60030;SDS011;45901;47.600;9.890;2022-12-29T20:41:08;3.37;;;1.93;;
60030;SDS011;45901;47.600;9.890;2022-12-29T20:43:38;3.03;;;1.40;;
60030;SDS011;45901;47.600;9.890;2022-12-29T20:46:05;4.60;;;1.50;;
60030;SDS011;45901;47.600;9.890;2022-12-29T20:48:38;4.10;;;1.67;;
60030;SDS011;45901;47.600;9.890;2022-12-29T20:54:42;2.20;;;1.30;;
60030;SDS011;45901;47.600;9.890;2022-12-29T20:58:00;3.47;;;1.50;;
60030;SDS011;45901;47.600;9.890;2022-12-29T21:01:40;3.87;;;2.00;;
60030;SDS011;45901;47.600;9.890;2022-12-29T21:04:18;5.00;;;2.00;;
60030;SDS011;45901;47.600;9.890;2022-12-29T21:10:50;2.57;;;1.47;;
60030;SDS011;45901;47.600;9.890;2022-12-29T21:14:37;2.97;;;1.80;;
60030;SDS011;45901;47.600;9.890;2022-12-29T21:17:40;2.57;;;1.37;;
60030;SDS011;45901;47.600;9.890;2022-12-29T21:20:11;5.97;;;1.80;;
60030;SDS011;45901;47.600;9.890;2022-12-29T21:22:45;4.47;;;1.60;;
60030;SDS011;45901;47.600;9.890;2022-12-29T21:25:26;3.13;;;1.30;;
60030;SDS011;45901;47.600;9.890;2022-12-29T21:28:00;5.30;;;1.80;;
60030;SDS011;45901;47.600;9.890;2022-12-29T21:30:29;5.43;;;1.33;;
60030;SDS011;45901;47.600;9.890;2022-12-29T21:33:02;3.77;;;1.30;;
60030;SDS011;45901;47.600;9.890;2022-12-29T21:35:33;2.60;;;1.10;;
60030;SDS011;45901;47.600;9.890;2022-12-29T21:38:00;3.63;;;1.53;;
60030;SDS011;45901;47.600;9.890;2022-12-29T21:40:29;5.43;;;1.50;;
60030;SDS011;45901;47.600;9.890;2022-12-29T21:42:56;4.30;;;1.10;;
60030;SDS011;45901;47.600;9.890;2022-12-29T21:45:24;2.97;;;1.33;;
60030;SDS011;45901;47.600;9.890;2022-12-29T21:47:52;2.43;;;1.10;;
60030;SDS011;45901;47.600;9.890;2022-12-29T21:50:42;6.27;;;1.50;;
60030;SDS011;45901;47.600;9.890;2022-12-29T21:53:30;2.57;;;1.13;;
60030;SDS011;45901;47.600;9.890;2022-12-29T21:56:05;3.63;;;1.33;;
60030;SDS011;45901;47.600;9.890;2022-12-29T21:58:42;4.53;;;1.40;;
60030;SDS011;45901;47.600;9.890;2022-12-29T22:01:30;3.67;;;1.60;;
60030;SDS011;45901;47.600;9.890;2022-12-29T22:07:35;4.73;;;1.50;;
60030;SDS011;45901;47.600;9.890;2022-12-29T22:21:07;2.80;;;1.27;;
60030;SDS011;45901;47.600;9.890;2022-12-29T22:23:38;2.53;;;1.20;;
60030;SDS011;45901;47.600;9.890;2022-12-29T22:26:06;4.63;;;1.60;;
60030;SDS011;45901;47.600;9.890;2022-12-29T22:28:36;2.93;;;1.30;;
60030;SDS011;45901;47.600;9.890;2022-12-29T22:31:16;3.93;;;1.60;;
60030;SDS011;45901;47.600;9.890;2022-12-29T22:33:51;6.20;;;1.67;;
60030;SDS011;45901;47.600;9.890;2022-12-29T22:36:21;2.33;;;1.53;;
60030;SDS011;45901;47.600;9.890;2022-12-29T22:38:49;2.63;;;1.60;;
60030;SDS011;45901;47.600;9.890;2022-12-29T22:41:16;3.10;;;1.43;;
60030;SDS011;45901;47.600;9.890;2022-12-29T22:43:44;3.27;;;2.10;;
60030;SDS011;45901;47.600;9.890;2022-12-29T22:46:12;5.27;;;1.87;;
60030;SDS011;45901;47.600;9.890;2022-12-29T22:48:39;4.40;;;1.93;;
60030;SDS011;45901;47.600;9.890;2022-12-29T22:51:06;4.50;;;1.60;;
60030;SDS011;45901;47.600;9.890;2022-12-29T22:53:34;4.00;;;1.73;;
60030;SDS011;45901;47.600;9.890;2022-12-29T22:56:02;2.87;;;1.70;;
60030;SDS011;45901;47.600;9.890;2022-12-29T22:58:31;5.63;;;1.90;;
60030;SDS011;45901;47.600;9.890;2022-12-29T23:00:59;2.60;;;1.50;;
60030;SDS011;45901;47.600;9.890;2022-12-29T23:03:30;7.20;;;2.30;;
60030;SDS011;45901;47.600;9.890;2022-12-29T23:05:58;1.83;;;1.00;;
60030;SDS011;45901;47.600;9.890;2022-12-29T23:08:27;3.07;;;1.83;;
60030;SDS011;45901;47.600;9.890;2022-12-29T23:10:58;3.00;;;1.50;;
60030;SDS011;45901;47.600;9.890;2022-12-29T23:13:26;3.33;;;1.37;;
60030;SDS011;45901;47.600;9.890;2022-12-29T23:15:53;2.43;;;1.33;;
60030;SDS011;45901;47.600;9.890;2022-12-29T23:18:20;1.67;;;0.90;;
60030;SDS011;45901;47.600;9.890;2022-12-29T23:20:49;5.63;;;1.67;;
60030;SDS011;45901;47.600;9.890;2022-12-29T23:23:17;1.90;;;1.20;;
60030;SDS011;45901;47.600;9.890;2022-12-29T23:26:05;2.77;;;1.20;;